METAR Data
IDs: Format: Raw Decoded Include TAF

Data at: 0231 UTC 29 May 2022

PAMC 290153Z AUTO 33004KT 10SM CLR 22/00 A2988 RMK AO2 SLP122 T02220000 TSNO